sensor_id;sensor_type;location;lat;lon;timestamp;pressure;altitude;pressure_sealevel;temperature;humidity
49377;BME280;35253;34.688;33.040;2022-12-16T00:00:13;101685.00;;;17.35;100.00
49377;BME280;35253;34.688;33.040;2022-12-16T00:02:40;101683.81;;;17.26;100.00
49377;BME280;35253;34.688;33.040;2022-12-16T00:05:05;101684.69;;;17.39;100.00
49377;BME280;35253;34.688;33.040;2022-12-16T00:07:31;101691.34;;;17.34;100.00
49377;BME280;35253;34.688;33.040;2022-12-16T00:09:56;101689.00;;;17.42;100.00
49377;BME280;35253;34.688;33.040;2022-12-16T00:12:22;101686.41;;;17.40;100.00
49377;BME280;35253;34.688;33.040;2022-12-16T00:14:47;101691.34;;;17.34;100.00
49377;BME280;35253;34.688;33.040;2022-12-16T00:17:13;101686.19;;;17.31;100.00
49377;BME280;35253;34.688;33.040;2022-12-16T00:19:38;101696.09;;;17.30;100.00
49377;BME280;35253;34.688;33.040;2022-12-16T00:22:04;101683.59;;;17.29;100.00
49377;BME280;35253;34.688;33.040;2022-12-16T00:24:29;101685.78;;;17.24;100.00
49377;BME280;35253;34.688;33.040;2022-12-16T00:26:55;101684.06;;;17.23;100.00
49377;BME280;35253;34.688;33.040;2022-12-16T00:29:21;101690.09;;;17.27;100.00
49377;BME280;35253;34.688;33.040;2022-12-16T00:31:46;101691.19;;;17.24;100.00
49377;BME280;35253;34.688;33.040;2022-12-16T00:34:12;101685.31;;;17.30;100.00
49377;BME280;35253;34.688;33.040;2022-12-16T00:36:38;101688.88;;;17.31;100.00
49377;BME280;35253;34.688;33.040;2022-12-16T00:39:03;101686.09;;;17.32;100.00
49377;BME280;35253;34.688;33.040;2022-12-16T00:41:29;101688.78;;;17.32;100.00
49377;BME280;35253;34.688;33.040;2022-12-16T00:43:54;101687.06;;;17.31;100.00
49377;BME280;35253;34.688;33.040;2022-12-16T00:46:19;101682.75;;;17.29;100.00
49377;BME280;35253;34.688;33.040;2022-12-16T00:48:45;101687.94;;;17.32;100.00
49377;BME280;35253;34.688;33.040;2022-12-16T00:51:10;101688.03;;;17.30;100.00
49377;BME280;35253;34.688;33.040;2022-12-16T00:53:36;101686.41;;;17.28;100.00
49377;BME280;35253;34.688;33.040;2022-12-16T00:56:09;101685.13;;;17.21;100.00
49377;BME280;35253;34.688;33.040;2022-12-16T00:58:35;101676.38;;;17.17;100.00
49377;BME280;35253;34.688;33.040;2022-12-16T01:01:00;101673.69;;;17.17;100.00
49377;BME280;35253;34.688;33.040;2022-12-16T01:03:26;101675.97;;;17.23;100.00
49377;BME280;35253;34.688;33.040;2022-12-16T01:05:51;101684.06;;;17.23;100.00
49377;BME280;35253;34.688;33.040;2022-12-16T01:08:17;101667.00;;;17.23;100.00
49377;BME280;35253;34.688;33.040;2022-12-16T01:10:48;101667.41;;;17.29;100.00
49377;BME280;35253;34.688;33.040;2022-12-16T01:13:14;101673.81;;;17.28;100.00
49377;BME280;35253;34.688;33.040;2022-12-16T01:15:39;101666.59;;;17.29;100.00
49377;BME280;35253;34.688;33.040;2022-12-16T01:18:04;101658.69;;;17.26;100.00
49377;BME280;35253;34.688;33.040;2022-12-16T01:20:31;101659.25;;;17.18;100.00
49377;BME280;35253;34.688;33.040;2022-12-16T01:22:56;101657.44;;;17.19;100.00
49377;BME280;35253;34.688;33.040;2022-12-16T01:25:21;101654.50;;;17.22;100.00
49377;BME280;35253;34.688;33.040;2022-12-16T01:27:47;101651.06;;;17.32;100.00
49377;BME280;35253;34.688;33.040;2022-12-16T01:30:12;101655.59;;;17.19;100.00
49377;BME280;35253;34.688;33.040;2022-12-16T01:32:38;101657.28;;;17.20;100.00
49377;BME280;35253;34.688;33.040;2022-12-16T01:35:03;101659.69;;;17.12;100.00
49377;BME280;35253;34.688;33.040;2022-12-16T01:37:29;101657.75;;;17.14;100.00
49377;BME280;35253;34.688;33.040;2022-12-16T01:39:54;101663.13;;;17.14;100.00
49377;BME280;35253;34.688;33.040;2022-12-16T01:42:21;101664.41;;;17.21;100.00
49377;BME280;35253;34.688;33.040;2022-12-16T01:44:47;101664.66;;;17.18;100.00
49377;BME280;35253;34.688;33.040;2022-12-16T01:47:15;101660.13;;;17.19;100.00
49377;BME280;35253;34.688;33.040;2022-12-16T01:49:42;101665.19;;;17.23;100.00
49377;BME280;35253;34.688;33.040;2022-12-16T01:52:10;101664.66;;;17.18;100.00
49377;BME280;35253;34.688;33.040;2022-12-16T01:54:38;101668.00;;;17.09;100.00
49377;BME280;35253;34.688;33.040;2022-12-16T01:57:05;101670.03;;;17.18;100.00
49377;BME280;35253;34.688;33.040;2022-12-16T01:59:34;101678.44;;;17.26;100.00
49377;BME280;35253;34.688;33.040;2022-12-16T02:02:02;101675.19;;;17.21;100.00
49377;BME280;35253;34.688;33.040;2022-12-16T02:04:28;101677.91;;;17.21;100.00
49377;BME280;35253;34.688;33.040;2022-12-16T02:06:53;101680.03;;;17.16;100.00
49377;BME280;35253;34.688;33.040;2022-12-16T02:09:19;101674.88;;;17.13;100.00
49377;BME280;35253;34.688;33.040;2022-12-16T02:30:00;101669.59;;;16.99;100.00
49377;BME280;35253;34.688;33.040;2022-12-16T02:35:43;101672.28;;;16.99;100.00
49377;BME280;35253;34.688;33.040;2022-12-16T02:41:01;101669.28;;;16.91;100.00
49377;BME280;35253;34.688;33.040;2022-12-16T02:46:01;101669.19;;;16.80;100.00
49377;BME280;35253;34.688;33.040;2022-12-16T02:48:28;101678.84;;;16.82;100.00
49377;BME280;35253;34.688;33.040;2022-12-16T02:50:53;101683.19;;;16.85;100.00
49377;BME280;35253;34.688;33.040;2022-12-16T02:53:19;101679.72;;;16.83;100.00
49377;BME280;35253;34.688;33.040;2022-12-16T03:00:53;101690.81;;;16.91;100.00
49377;BME280;35253;34.688;33.040;2022-12-16T03:03:29;101691.13;;;16.86;100.00
49377;BME280;35253;34.688;33.040;2022-12-16T03:05:59;101706.34;;;16.87;100.00
49377;BME280;35253;34.688;33.040;2022-12-16T03:08:28;101697.16;;;16.90;100.00
49377;BME280;35253;34.688;33.040;2022-12-16T03:10:58;101703.00;;;16.84;100.00
49377;BME280;35253;34.688;33.040;2022-12-16T03:13:24;101697.38;;;16.74;100.00
49377;BME280;35253;34.688;33.040;2022-12-16T03:15:52;101703.94;;;16.57;100.00
49377;BME280;35253;34.688;33.040;2022-12-16T03:18:19;101705.66;;;16.32;100.00
49377;BME280;35253;34.688;33.040;2022-12-16T03:20:48;101716.47;;;16.17;100.00
49377;BME280;35253;34.688;33.040;2022-12-16T03:23:16;101720.75;;;16.20;100.00
49377;BME280;35253;34.688;33.040;2022-12-16T03:25:44;101713.19;;;16.39;100.00
49377;BME280;35253;34.688;33.040;2022-12-16T03:28:36;101723.13;;;16.51;100.00
49377;BME280;35253;34.688;33.040;2022-12-16T03:31:00;101719.88;;;16.60;100.00
49377;BME280;35253;34.688;33.040;2022-12-16T03:33:32;101721.47;;;16.63;100.00
49377;BME280;35253;34.688;33.040;2022-12-16T03:36:20;101716.34;;;16.73;100.00
49377;BME280;35253;34.688;33.040;2022-12-16T03:38:46;101730.31;;;16.65;100.00
49377;BME280;35253;34.688;33.040;2022-12-16T03:41:13;101729.69;;;16.61;100.00
49377;BME280;35253;34.688;33.040;2022-12-16T03:43:40;101721.22;;;16.53;100.00
49377;BME280;35253;34.688;33.040;2022-12-16T03:46:06;101719.28;;;16.55;100.00
49377;BME280;35253;34.688;33.040;2022-12-16T03:48:32;101732.66;;;16.57;100.00
49377;BME280;35253;34.688;33.040;2022-12-16T03:50:58;101729.47;;;16.64;100.00
49377;BME280;35253;34.688;33.040;2022-12-16T03:53:23;101733.00;;;16.65;100.00
49377;BME280;35253;34.688;33.040;2022-12-16T03:55:51;101733.31;;;16.60;100.00
49377;BME280;35253;34.688;33.040;2022-12-16T03:58:17;101732.06;;;16.66;100.00
49377;BME280;35253;34.688;33.040;2022-12-16T04:00:42;101734.63;;;16.67;100.00
49377;BME280;35253;34.688;33.040;2022-12-16T04:03:08;101735.81;;;16.63;100.00
49377;BME280;35253;34.688;33.040;2022-12-16T04:05:33;101736.34;;;16.68;100.00
49377;BME280;35253;34.688;33.040;2022-12-16T04:07:59;101743.47;;;16.70;100.00
49377;BME280;35253;34.688;33.040;2022-12-16T04:10:24;101741.50;;;16.59;100.00
49377;BME280;35253;34.688;33.040;2022-12-16T04:13:08;101737.47;;;16.52;100.00
49377;BME280;35253;34.688;33.040;2022-12-16T04:15:52;101740.38;;;16.49;100.00
49377;BME280;35253;34.688;33.040;2022-12-16T04:18:36;101743.16;;;16.47;100.00
49377;BME280;35253;34.688;33.040;2022-12-16T04:21:21;101741.72;;;16.42;100.00
49377;BME280;35253;34.688;33.040;2022-12-16T04:24:06;101745.81;;;16.35;100.00
49377;BME280;35253;34.688;33.040;2022-12-16T04:26:44;101751.09;;;16.36;100.00
49377;BME280;35253;34.688;33.040;2022-12-16T04:29:28;101745.25;;;16.30;100.00
49377;BME280;35253;34.688;33.040;2022-12-16T04:31:54;101756.72;;;16.46;100.00
49377;BME280;35253;34.688;33.040;2022-12-16T04:34:20;101760.88;;;16.37;100.00
49377;BME280;35253;34.688;33.040;2022-12-16T04:37:02;101761.66;;;16.39;100.00
49377;BME280;35253;34.688;33.040;2022-12-16T04:39:46;101767.25;;;16.36;100.00
49377;BME280;35253;34.688;33.040;2022-12-16T04:42:30;101762.47;;;16.27;100.00
49377;BME280;35253;34.688;33.040;2022-12-16T04:45:14;101766.25;;;16.37;100.00
49377;BME280;35253;34.688;33.040;2022-12-16T04:47:58;101769.38;;;16.31;100.00
49377;BME280;35253;34.688;33.040;2022-12-16T04:50:43;101763.34;;;16.28;100.00
49377;BME280;35253;34.688;33.040;2022-12-16T04:53:27;101760.53;;;16.29;100.00
49377;BME280;35253;34.688;33.040;2022-12-16T04:56:11;101774.28;;;16.24;100.00
49377;BME280;35253;34.688;33.040;2022-12-16T04:58:55;101770.03;;;16.35;100.00
49377;BME280;35253;34.688;33.040;2022-12-16T05:01:38;101774.34;;;16.37;100.00
49377;BME280;35253;34.688;33.040;2022-12-16T05:04:22;101771.56;;;16.39;100.00
49377;BME280;35253;34.688;33.040;2022-12-16T05:07:06;101772.22;;;16.42;100.00
49377;BME280;35253;34.688;33.040;2022-12-16T05:09:50;101782.16;;;16.54;100.00
49377;BME280;35253;34.688;33.040;2022-12-16T05:12:34;101773.13;;;16.55;100.00
49377;BME280;35253;34.688;33.040;2022-12-16T05:15:18;101774.84;;;16.56;100.00
49377;BME280;35253;34.688;33.040;2022-12-16T05:18:09;101784.75;;;16.56;100.00
49377;BME280;35253;34.688;33.040;2022-12-16T05:20:55;101783.75;;;16.58;100.00
49377;BME280;35253;34.688;33.040;2022-12-16T05:23:39;101784.97;;;16.67;100.00
49377;BME280;35253;34.688;33.040;2022-12-16T05:26:23;101795.41;;;16.72;100.00
49377;BME280;35253;34.688;33.040;2022-12-16T05:29:07;101796.31;;;16.85;100.00
49377;BME280;35253;34.688;33.040;2022-12-16T05:31:51;101787.47;;;16.83;100.00
49377;BME280;35253;34.688;33.040;2022-12-16T05:34:35;101795.88;;;16.91;100.00
49377;BME280;35253;34.688;33.040;2022-12-16T05:37:20;101804.75;;;16.93;100.00
49377;BME280;35253;34.688;33.040;2022-12-16T05:40:04;101797.41;;;16.95;100.00
49377;BME280;35253;34.688;33.040;2022-12-16T05:42:47;101798.91;;;16.99;100.00
49377;BME280;35253;34.688;33.040;2022-12-16T05:45:31;101799.47;;;17.04;100.00
49377;BME280;35253;34.688;33.040;2022-12-16T05:48:15;101799.41;;;17.18;100.00
49377;BME280;35253;34.688;33.040;2022-12-16T05:50:59;101800.50;;;17.28;100.00
49377;BME280;35253;34.688;33.040;2022-12-16T05:53:43;101800.28;;;17.31;100.00
49377;BME280;35253;34.688;33.040;2022-12-16T05:56:27;101802.97;;;17.44;100.00
49377;BME280;35253;34.688;33.040;2022-12-16T05:59:11;101806.31;;;17.47;100.00
49377;BME280;35253;34.688;33.040;2022-12-16T06:01:55;101801.88;;;17.46;100.00
49377;BME280;35253;34.688;33.040;2022-12-16T06:04:39;101805.91;;;17.53;100.00
49377;BME280;35253;34.688;33.040;2022-12-16T06:07:23;101810.47;;;17.66;100.00
49377;BME280;35253;34.688;33.040;2022-12-16T06:10:07;101808.28;;;17.71;100.00
49377;BME280;35253;34.688;33.040;2022-12-16T06:12:51;101817.81;;;17.76;100.00
49377;BME280;35253;34.688;33.040;2022-12-16T06:15:35;101814.31;;;17.87;100.00
49377;BME280;35253;34.688;33.040;2022-12-16T06:18:19;101816.91;;;18.01;100.00
49377;BME280;35253;34.688;33.040;2022-12-16T06:21:04;101822.19;;;18.02;100.00
49377;BME280;35253;34.688;33.040;2022-12-16T06:23:48;101824.44;;;18.09;100.00
49377;BME280;35253;34.688;33.040;2022-12-16T06:26:32;101823.47;;;18.10;100.00
49377;BME280;35253;34.688;33.040;2022-12-16T06:29:16;101823.56;;;18.21;100.00
49377;BME280;35253;34.688;33.040;2022-12-16T06:32:00;101818.16;;;18.21;100.00
49377;BME280;35253;34.688;33.040;2022-12-16T06:34:44;101823.97;;;18.27;100.00
49377;BME280;35253;34.688;33.040;2022-12-16T06:37:28;101827.44;;;18.29;100.00
49377;BME280;35253;34.688;33.040;2022-12-16T06:40:12;101824.16;;;18.37;100.00
49377;BME280;35253;34.688;33.040;2022-12-16T06:42:56;101817.56;;;18.41;100.00
49377;BME280;35253;34.688;33.040;2022-12-16T06:45:40;101830.81;;;18.44;100.00
49377;BME280;35253;34.688;33.040;2022-12-16T06:48:24;101825.63;;;18.54;100.00
49377;BME280;35253;34.688;33.040;2022-12-16T06:51:08;101823.69;;;18.56;100.00
49377;BME280;35253;34.688;33.040;2022-12-16T06:53:52;101835.75;;;18.63;100.00
49377;BME280;35253;34.688;33.040;2022-12-16T06:56:36;101832.81;;;18.66;100.00
49377;BME280;35253;34.688;33.040;2022-12-16T06:59:20;101831.41;;;18.73;100.00
49377;BME280;35253;34.688;33.040;2022-12-16T07:02:04;101835.31;;;18.69;100.00
49377;BME280;35253;34.688;33.040;2022-12-16T07:04:48;101832.66;;;18.80;100.00
49377;BME280;35253;34.688;33.040;2022-12-16T07:07:32;101839.56;;;18.84;100.00
49377;BME280;35253;34.688;33.040;2022-12-16T07:10:16;101828.91;;;18.94;100.00
49377;BME280;35253;34.688;33.040;2022-12-16T07:13:00;101827.34;;;19.02;100.00
49377;BME280;35253;34.688;33.040;2022-12-16T07:15:44;101832.31;;;19.08;100.00
49377;BME280;35253;34.688;33.040;2022-12-16T07:18:28;101830.09;;;19.13;100.00
49377;BME280;35253;34.688;33.040;2022-12-16T07:21:12;101827.69;;;19.21;100.00
49377;BME280;35253;34.688;33.040;2022-12-16T07:23:56;101825.59;;;19.25;100.00
49377;BME280;35253;34.688;33.040;2022-12-16T07:26:40;101829.69;;;19.30;100.00
49377;BME280;35253;34.688;33.040;2022-12-16T07:29:24;101826.09;;;19.30;100.00
49377;BME280;35253;34.688;33.040;2022-12-16T07:32:08;101828.66;;;19.31;100.00
49377;BME280;35253;34.688;33.040;2022-12-16T07:34:52;101835.34;;;19.39;100.00
49377;BME280;35253;34.688;33.040;2022-12-16T07:37:37;101838.09;;;19.50;100.00
49377;BME280;35253;34.688;33.040;2022-12-16T07:40:22;101840.34;;;19.56;100.00
49377;BME280;35253;34.688;33.040;2022-12-16T07:43:06;101835.91;;;19.55;100.00
49377;BME280;35253;34.688;33.040;2022-12-16T07:45:50;101828.53;;;19.57;100.00
49377;BME280;35253;34.688;33.040;2022-12-16T07:48:34;101822.88;;;19.60;100.00
49377;BME280;35253;34.688;33.040;2022-12-16T07:51:18;101837.13;;;19.62;100.00
49377;BME280;35253;34.688;33.040;2022-12-16T07:54:02;101835.19;;;19.64;100.00
49377;BME280;35253;34.688;33.040;2022-12-16T07:56:46;101839.63;;;19.65;100.00
49377;BME280;35253;34.688;33.040;2022-12-16T07:59:43;101826.09;;;19.65;100.00
49377;BME280;35253;34.688;33.040;2022-12-16T08:02:31;101834.94;;;19.78;100.00
49377;BME280;35253;34.688;33.040;2022-12-16T08:05:15;101822.03;;;19.82;100.00
49377;BME280;35253;34.688;33.040;2022-12-16T08:07:59;101825.38;;;19.96;100.00
49377;BME280;35253;34.688;33.040;2022-12-16T08:10:43;101821.91;;;19.94;100.00
49377;BME280;35253;34.688;33.040;2022-12-16T08:13:27;101820.69;;;20.09;100.00
49377;BME280;35253;34.688;33.040;2022-12-16T08:16:11;101814.25;;;20.10;100.00
49377;BME280;35253;34.688;33.040;2022-12-16T08:18:55;101810.59;;;20.11;100.00
49377;BME280;35253;34.688;33.040;2022-12-16T08:21:41;101814.75;;;20.15;100.00
49377;BME280;35253;34.688;33.040;2022-12-16T08:24:25;101811.03;;;20.27;100.00
49377;BME280;35253;34.688;33.040;2022-12-16T08:27:09;101803.59;;;20.31;100.00
49377;BME280;35253;34.688;33.040;2022-12-16T08:29:53;101805.06;;;20.35;100.00
49377;BME280;35253;34.688;33.040;2022-12-16T08:32:37;101805.06;;;20.35;100.00
49377;BME280;35253;34.688;33.040;2022-12-16T08:35:21;101799.75;;;20.34;100.00
49377;BME280;35253;34.688;33.040;2022-12-16T08:38:05;101796.19;;;20.33;100.00
49377;BME280;35253;34.688;33.040;2022-12-16T08:40:49;101797.50;;;20.27;100.00
49377;BME280;35253;34.688;33.040;2022-12-16T08:43:34;101792.22;;;20.37;100.00
49377;BME280;35253;34.688;33.040;2022-12-16T08:46:18;101798.25;;;20.41;100.00
49377;BME280;35253;34.688;33.040;2022-12-16T08:49:02;101790.59;;;20.46;100.00
49377;BME280;35253;34.688;33.040;2022-12-16T08:51:47;101784.94;;;20.49;100.00
49377;BME280;35253;34.688;33.040;2022-12-16T08:54:31;101787.41;;;20.52;100.00
49377;BME280;35253;34.688;33.040;2022-12-16T08:57:15;101780.34;;;20.60;100.00
49377;BME280;35253;34.688;33.040;2022-12-16T08:59:58;101774.53;;;20.65;100.00
49377;BME280;35253;34.688;33.040;2022-12-16T09:02:42;101766.75;;;20.72;100.00
49377;BME280;35253;34.688;33.040;2022-12-16T09:05:26;101770.91;;;20.76;100.00
49377;BME280;35253;34.688;33.040;2022-12-16T09:08:10;101754.25;;;20.80;100.00
49377;BME280;35253;34.688;33.040;2022-12-16T09:10:54;101760.63;;;20.90;100.00
49377;BME280;35253;34.688;33.040;2022-12-16T09:13:42;101743.38;;;20.91;100.00
49377;BME280;35253;34.688;33.040;2022-12-16T09:16:26;101746.06;;;20.71;100.00
49377;BME280;35253;34.688;33.040;2022-12-16T09:19:11;101742.31;;;20.83;100.00
49377;BME280;35253;34.688;33.040;2022-12-16T09:21:55;101740.38;;;20.94;100.00
49377;BME280;35253;34.688;33.040;2022-12-16T09:24:39;101747.81;;;20.92;100.00
49377;BME280;35253;34.688;33.040;2022-12-16T09:27:23;101742.59;;;21.00;100.00
49377;BME280;35253;34.688;33.040;2022-12-16T09:30:07;101737.75;;;21.04;100.00
49377;BME280;35253;34.688;33.040;2022-12-16T09:32:51;101735.00;;;21.15;100.00
49377;BME280;35253;34.688;33.040;2022-12-16T09:35:35;101731.63;;;21.23;100.00
49377;BME280;35253;34.688;33.040;2022-12-16T09:38:19;101726.22;;;21.23;100.00
49377;BME280;35253;34.688;33.040;2022-12-16T09:41:17;101734.41;;;21.32;100.00
49377;BME280;35253;34.688;33.040;2022-12-16T09:47:12;101716.00;;;21.36;100.00
49377;BME280;35253;34.688;33.040;2022-12-16T09:49:58;101712.31;;;21.46;100.00
49377;BME280;35253;34.688;33.040;2022-12-16T09:52:47;101710.66;;;21.55;100.00
49377;BME280;35253;34.688;33.040;2022-12-16T09:55:40;101704.97;;;21.58;100.00
49377;BME280;35253;34.688;33.040;2022-12-16T09:58:28;101699.53;;;21.58;100.00
49377;BME280;35253;34.688;33.040;2022-12-16T10:01:13;101707.13;;;21.64;100.00
49377;BME280;35253;34.688;33.040;2022-12-16T10:03:58;101695.31;;;21.75;100.00
49377;BME280;35253;34.688;33.040;2022-12-16T10:06:45;101696.88;;;21.77;100.00
49377;BME280;35253;34.688;33.040;2022-12-16T10:09:38;101693.91;;;21.80;100.00
49377;BME280;35253;34.688;33.040;2022-12-16T10:15:28;101698.75;;;21.86;100.00
49377;BME280;35253;34.688;33.040;2022-12-16T10:21:20;101686.56;;;22.01;100.00
49377;BME280;35253;34.688;33.040;2022-12-16T10:26:55;101681.13;;;22.21;100.00
49377;BME280;35253;34.688;33.040;2022-12-16T10:29:43;101684.00;;;22.19;100.00
49377;BME280;35253;34.688;33.040;2022-12-16T10:32:32;101687.16;;;22.34;100.00
49377;BME280;35253;34.688;33.040;2022-12-16T10:35:21;101686.88;;;22.37;100.00
49377;BME280;35253;34.688;33.040;2022-12-16T10:38:09;101677.72;;;22.47;100.00
49377;BME280;35253;34.688;33.040;2022-12-16T10:40:58;101683.44;;;22.54;100.00
49377;BME280;35253;34.688;33.040;2022-12-16T10:43:43;101679.44;;;22.48;100.00
49377;BME280;35253;34.688;33.040;2022-12-16T10:46:31;101685.19;;;22.55;100.00
49377;BME280;35253;34.688;33.040;2022-12-16T10:49:15;101674.28;;;22.65;100.00
49377;BME280;35253;34.688;33.040;2022-12-16T10:51:59;101682.88;;;22.70;100.00
49377;BME280;35253;34.688;33.040;2022-12-16T11:00:50;101674.47;;;23.29;100.00
49377;BME280;35253;34.688;33.040;2022-12-16T11:03:36;101677.44;;;23.45;100.00
49377;BME280;35253;34.688;33.040;2022-12-16T11:06:27;101678.53;;;23.52;100.00
49377;BME280;35253;34.688;33.040;2022-12-16T11:15:20;101679.84;;;24.48;100.00
49377;BME280;35253;34.688;33.040;2022-12-16T11:18:07;101672.78;;;24.81;100.00
49377;BME280;35253;34.688;33.040;2022-12-16T11:21:07;101665.06;;;24.94;100.00
49377;BME280;35253;34.688;33.040;2022-12-16T11:26:52;101665.09;;;25.28;100.00
49377;BME280;35253;34.688;33.040;2022-12-16T11:29:47;101659.50;;;25.29;100.00
49377;BME280;35253;34.688;33.040;2022-12-16T11:32:32;101666.22;;;25.43;100.00
49377;BME280;35253;34.688;33.040;2022-12-16T11:35:16;101668.84;;;25.52;100.00
49377;BME280;35253;34.688;33.040;2022-12-16T11:38:02;101672.19;;;25.72;100.00
49377;BME280;35253;34.688;33.040;2022-12-16T11:40:47;101657.72;;;25.80;100.00
49377;BME280;35253;34.688;33.040;2022-12-16T11:43:32;101661.84;;;25.92;100.00
49377;BME280;35253;34.688;33.040;2022-12-16T11:46:24;101665.44;;;25.92;100.00
49377;BME280;35253;34.688;33.040;2022-12-16T11:49:30;101660.50;;;26.04;100.00
49377;BME280;35253;34.688;33.040;2022-12-16T11:52:14;101662.13;;;26.55;100.00
49377;BME280;35253;34.688;33.040;2022-12-16T11:58:04;101667.81;;;26.94;100.00
49377;BME280;35253;34.688;33.040;2022-12-16T12:01:01;101671.56;;;27.01;100.00
49377;BME280;35253;34.688;33.040;2022-12-16T12:03:58;101672.34;;;27.26;100.00
49377;BME280;35253;34.688;33.040;2022-12-16T12:09:48;101669.44;;;27.27;100.00
49377;BME280;35253;34.688;33.040;2022-12-16T12:16:00;101671.50;;;27.33;100.00
49377;BME280;35253;34.688;33.040;2022-12-16T12:22:00;101684.03;;;27.20;100.00
49377;BME280;35253;34.688;33.040;2022-12-16T12:27:33;101686.94;;;26.62;100.00
49377;BME280;35253;34.688;33.040;2022-12-16T12:30:21;101686.44;;;26.99;100.00
49377;BME280;35253;34.688;33.040;2022-12-16T12:41:58;101683.91;;;26.89;100.00
49377;BME280;35253;34.688;33.040;2022-12-16T12:44:43;101678.41;;;26.89;100.00
49377;BME280;35253;34.688;33.040;2022-12-16T12:47:30;101672.06;;;27.05;100.00
49377;BME280;35253;34.688;33.040;2022-12-16T12:50:18;101686.97;;;26.94;100.00
49377;BME280;35253;34.688;33.040;2022-12-16T12:53:17;101684.03;;;26.96;100.00
49377;BME280;35253;34.688;33.040;2022-12-16T12:59:11;101682.81;;;26.74;100.00
49377;BME280;35253;34.688;33.040;2022-12-16T13:01:59;101692.41;;;26.62;100.00
49377;BME280;35253;34.688;33.040;2022-12-16T13:04:45;101692.09;;;26.97;100.00
49377;BME280;35253;34.688;33.040;2022-12-16T13:07:41;101696.50;;;26.58;100.00
49377;BME280;35253;34.688;33.040;2022-12-16T13:16:02;101714.47;;;25.34;100.00
49377;BME280;35253;34.688;33.040;2022-12-16T13:18:46;101714.22;;;24.84;100.00
49377;BME280;35253;34.688;33.040;2022-12-16T13:24:33;101712.22;;;24.06;100.00
49377;BME280;35253;34.688;33.040;2022-12-16T13:27:19;101720.25;;;23.43;100.00
49377;BME280;35253;34.688;33.040;2022-12-16T13:30:16;101715.94;;;22.84;100.00
49377;BME280;35253;34.688;33.040;2022-12-16T13:33:03;101721.19;;;23.05;100.00
49377;BME280;35253;34.688;33.040;2022-12-16T13:35:51;101721.50;;;23.12;100.00
49377;BME280;35253;34.688;33.040;2022-12-16T13:38:43;101730.66;;;23.11;100.00
49377;BME280;35253;34.688;33.040;2022-12-16T13:50:38;101729.19;;;22.30;100.00
49377;BME280;35253;34.688;33.040;2022-12-16T13:53:23;101723.75;;;22.11;100.00
49377;BME280;35253;34.688;33.040;2022-12-16T13:56:08;101730.47;;;21.76;100.00
49377;BME280;35253;34.688;33.040;2022-12-16T13:58:59;101728.78;;;21.85;100.00
49377;BME280;35253;34.688;33.040;2022-12-16T14:04:36;101732.97;;;21.68;100.00
49377;BME280;35253;34.688;33.040;2022-12-16T14:07:21;101734.13;;;21.66;100.00
49377;BME280;35253;34.688;33.040;2022-12-16T14:10:05;101726.22;;;21.53;100.00
49377;BME280;35253;34.688;33.040;2022-12-16T14:13:06;101730.69;;;21.64;100.00
49377;BME280;35253;34.688;33.040;2022-12-16T14:18:50;101731.81;;;21.61;100.00
49377;BME280;35253;34.688;33.040;2022-12-16T14:21:39;101731.94;;;21.50;100.00
49377;BME280;35253;34.688;33.040;2022-12-16T14:24:25;101736.63;;;21.48;100.00
49377;BME280;35253;34.688;33.040;2022-12-16T14:27:14;101731.47;;;21.45;100.00
49377;BME280;35253;34.688;33.040;2022-12-16T14:29:59;101728.56;;;21.37;100.00
49377;BME280;35253;34.688;33.040;2022-12-16T14:32:43;101734.81;;;21.28;100.00
49377;BME280;35253;34.688;33.040;2022-12-16T14:35:35;101746.66;;;21.27;100.00
49377;BME280;35253;34.688;33.040;2022-12-16T14:38:28;101733.88;;;21.18;100.00
49377;BME280;35253;34.688;33.040;2022-12-16T14:41:23;101735.22;;;21.23;100.00
49377;BME280;35253;34.688;33.040;2022-12-16T14:44:21;101740.66;;;21.12;100.00
49377;BME280;35253;34.688;33.040;2022-12-16T14:47:05;101742.28;;;21.15;100.00
49377;BME280;35253;34.688;33.040;2022-12-16T14:49:54;101746.84;;;21.14;100.00
49377;BME280;35253;34.688;33.040;2022-12-16T14:52:38;101745.00;;;21.15;100.00
49377;BME280;35253;34.688;33.040;2022-12-16T14:55:32;101755.59;;;21.06;100.00
49377;BME280;35253;34.688;33.040;2022-12-16T14:58:18;101754.22;;;21.12;100.00
49377;BME280;35253;34.688;33.040;2022-12-16T15:01:23;101747.84;;;21.13;100.00
49377;BME280;35253;34.688;33.040;2022-12-16T15:04:24;101751.44;;;21.02;100.00
49377;BME280;35253;34.688;33.040;2022-12-16T15:07:10;101763.03;;;21.04;100.00
49377;BME280;35253;34.688;33.040;2022-12-16T15:09:57;101759.53;;;20.93;100.00
49377;BME280;35253;34.688;33.040;2022-12-16T15:12:42;101773.91;;;20.93;100.00
49377;BME280;35253;34.688;33.040;2022-12-16T15:15:46;101770.47;;;20.91;100.00
49377;BME280;35253;34.688;33.040;2022-12-16T15:21:15;101775.91;;;20.91;100.00
49377;BME280;35253;34.688;33.040;2022-12-16T15:23:59;101774.72;;;20.84;100.00
49377;BME280;35253;34.688;33.040;2022-12-16T15:26:43;101776.69;;;20.82;100.00
49377;BME280;35253;34.688;33.040;2022-12-16T15:32:33;101782.38;;;20.79;100.00